sensor_id;sensor_type;location;lat;lon;timestamp;P1;durP1;ratioP1;P2;durP2;ratioP2
60492;SDS011;46341;51.290;-2.474;2023-03-30T00:02:18;37.83;;;5.75;;
60492;SDS011;46341;51.290;-2.474;2023-03-30T00:04:50;32.85;;;5.20;;
60492;SDS011;46341;51.290;-2.474;2023-03-30T00:07:17;28.65;;;4.57;;
60492;SDS011;46341;51.290;-2.474;2023-03-30T00:09:44;31.23;;;5.50;;
60492;SDS011;46341;51.290;-2.474;2023-03-30T00:12:12;26.07;;;5.43;;
60492;SDS011;46341;51.290;-2.474;2023-03-30T00:14:40;34.33;;;4.97;;
60492;SDS011;46341;51.290;-2.474;2023-03-30T00:17:08;35.40;;;4.97;;
60492;SDS011;46341;51.290;-2.474;2023-03-30T00:19:34;23.88;;;4.30;;
60492;SDS011;46341;51.290;-2.474;2023-03-30T00:22:04;30.30;;;6.03;;
60492;SDS011;46341;51.290;-2.474;2023-03-30T00:24:31;24.27;;;3.97;;
60492;SDS011;46341;51.290;-2.474;2023-03-30T00:26:57;23.02;;;4.72;;
60492;SDS011;46341;51.290;-2.474;2023-03-30T00:29:23;28.88;;;4.25;;
60492;SDS011;46341;51.290;-2.474;2023-03-30T00:31:50;19.65;;;3.85;;
60492;SDS011;46341;51.290;-2.474;2023-03-30T00:34:17;19.73;;;3.40;;
60492;SDS011;46341;51.290;-2.474;2023-03-30T00:36:43;15.07;;;3.05;;
60492;SDS011;46341;51.290;-2.474;2023-03-30T00:39:11;19.02;;;3.10;;
60492;SDS011;46341;51.290;-2.474;2023-03-30T00:41:38;22.83;;;3.47;;
60492;SDS011;46341;51.290;-2.474;2023-03-30T00:44:05;18.50;;;3.38;;
60492;SDS011;46341;51.290;-2.474;2023-03-30T00:46:32;20.20;;;3.17;;
60492;SDS011;46341;51.290;-2.474;2023-03-30T00:49:00;20.40;;;3.03;;
60492;SDS011;46341;51.290;-2.474;2023-03-30T00:51:29;17.02;;;3.10;;
60492;SDS011;46341;51.290;-2.474;2023-03-30T00:54:07;24.35;;;3.60;;
60492;SDS011;46341;51.290;-2.474;2023-03-30T00:56:34;17.98;;;3.13;;
60492;SDS011;46341;51.290;-2.474;2023-03-30T00:59:01;20.95;;;3.08;;
60492;SDS011;46341;51.290;-2.474;2023-03-30T01:01:28;13.88;;;2.42;;
60492;SDS011;46341;51.290;-2.474;2023-03-30T01:03:56;18.38;;;3.13;;
60492;SDS011;46341;51.290;-2.474;2023-03-30T01:06:24;17.85;;;2.63;;
60492;SDS011;46341;51.290;-2.474;2023-03-30T01:08:51;18.43;;;3.13;;
60492;SDS011;46341;51.290;-2.474;2023-03-30T01:11:18;21.92;;;3.30;;
60492;SDS011;46341;51.290;-2.474;2023-03-30T01:13:46;18.90;;;3.58;;
60492;SDS011;46341;51.290;-2.474;2023-03-30T01:34:33;23.35;;;2.72;;
60492;SDS011;46341;51.290;-2.474;2023-03-30T01:37:23;19.85;;;2.95;;
60492;SDS011;46341;51.290;-2.474;2023-03-30T01:42:36;18.00;;;3.05;;
60492;SDS011;46341;51.290;-2.474;2023-03-30T01:45:07;16.10;;;2.63;;
60492;SDS011;46341;51.290;-2.474;2023-03-30T01:47:46;20.00;;;2.80;;
60492;SDS011;46341;51.290;-2.474;2023-03-30T01:53:13;20.60;;;3.22;;
60492;SDS011;46341;51.290;-2.474;2023-03-30T01:55:50;21.65;;;3.55;;
60492;SDS011;46341;51.290;-2.474;2023-03-30T01:58:20;17.48;;;3.20;;
60492;SDS011;46341;51.290;-2.474;2023-03-30T02:00:48;25.58;;;2.97;;
60492;SDS011;46341;51.290;-2.474;2023-03-30T02:03:17;17.92;;;2.90;;
60492;SDS011;46341;51.290;-2.474;2023-03-30T02:05:47;19.23;;;3.22;;
60492;SDS011;46341;51.290;-2.474;2023-03-30T02:08:16;21.27;;;3.13;;
60492;SDS011;46341;51.290;-2.474;2023-03-30T02:10:44;21.45;;;3.05;;
60492;SDS011;46341;51.290;-2.474;2023-03-30T02:13:11;23.55;;;3.20;;
60492;SDS011;46341;51.290;-2.474;2023-03-30T02:15:39;18.75;;;3.85;;
60492;SDS011;46341;51.290;-2.474;2023-03-30T02:18:07;20.95;;;3.20;;
60492;SDS011;46341;51.290;-2.474;2023-03-30T02:20:33;20.80;;;3.38;;
60492;SDS011;46341;51.290;-2.474;2023-03-30T02:23:00;19.55;;;3.28;;
60492;SDS011;46341;51.290;-2.474;2023-03-30T02:25:27;23.15;;;3.80;;
60492;SDS011;46341;51.290;-2.474;2023-03-30T02:27:54;17.52;;;3.40;;
60492;SDS011;46341;51.290;-2.474;2023-03-30T02:30:20;18.45;;;3.30;;
60492;SDS011;46341;51.290;-2.474;2023-03-30T02:32:47;20.98;;;3.58;;
60492;SDS011;46341;51.290;-2.474;2023-03-30T02:37:54;21.10;;;3.35;;
60492;SDS011;46341;51.290;-2.474;2023-03-30T02:45:31;22.83;;;3.58;;
60492;SDS011;46341;51.290;-2.474;2023-03-30T02:48:17;23.85;;;3.40;;
60492;SDS011;46341;51.290;-2.474;2023-03-30T02:53:41;17.42;;;3.40;;
60492;SDS011;46341;51.290;-2.474;2023-03-30T02:58:52;25.67;;;3.58;;
60492;SDS011;46341;51.290;-2.474;2023-03-30T03:03:48;18.10;;;3.35;;
60492;SDS011;46341;51.290;-2.474;2023-03-30T03:06:16;17.05;;;2.95;;
60492;SDS011;46341;51.290;-2.474;2023-03-30T03:08:45;19.70;;;3.13;;
60492;SDS011;46341;51.290;-2.474;2023-03-30T03:11:15;21.15;;;3.45;;
60492;SDS011;46341;51.290;-2.474;2023-03-30T03:13:42;22.60;;;3.50;;
60492;SDS011;46341;51.290;-2.474;2023-03-30T03:16:08;18.55;;;3.28;;
60492;SDS011;46341;51.290;-2.474;2023-03-30T03:18:38;27.08;;;4.30;;
60492;SDS011;46341;51.290;-2.474;2023-03-30T03:21:05;19.23;;;3.17;;
60492;SDS011;46341;51.290;-2.474;2023-03-30T03:23:33;19.83;;;3.33;;
60492;SDS011;46341;51.290;-2.474;2023-03-30T03:25:59;25.17;;;4.00;;
60492;SDS011;46341;51.290;-2.474;2023-03-30T03:28:26;20.80;;;2.90;;
60492;SDS011;46341;51.290;-2.474;2023-03-30T03:30:53;26.55;;;3.85;;
60492;SDS011;46341;51.290;-2.474;2023-03-30T03:33:19;22.80;;;3.45;;
60492;SDS011;46341;51.290;-2.474;2023-03-30T03:35:46;20.98;;;3.85;;
60492;SDS011;46341;51.290;-2.474;2023-03-30T03:38:12;27.05;;;4.28;;
60492;SDS011;46341;51.290;-2.474;2023-03-30T03:40:39;23.10;;;4.05;;
60492;SDS011;46341;51.290;-2.474;2023-03-30T03:43:06;19.17;;;3.33;;
60492;SDS011;46341;51.290;-2.474;2023-03-30T03:45:32;19.38;;;4.10;;
60492;SDS011;46341;51.290;-2.474;2023-03-30T03:47:59;22.25;;;3.10;;
60492;SDS011;46341;51.290;-2.474;2023-03-30T03:50:25;21.08;;;3.55;;
60492;SDS011;46341;51.290;-2.474;2023-03-30T03:52:51;17.33;;;3.60;;
60492;SDS011;46341;51.290;-2.474;2023-03-30T03:55:18;20.65;;;3.45;;
60492;SDS011;46341;51.290;-2.474;2023-03-30T03:57:44;22.27;;;4.32;;
60492;SDS011;46341;51.290;-2.474;2023-03-30T04:00:11;23.73;;;3.50;;
60492;SDS011;46341;51.290;-2.474;2023-03-30T04:02:43;25.90;;;3.90;;
60492;SDS011;46341;51.290;-2.474;2023-03-30T04:05:10;20.02;;;3.65;;
60492;SDS011;46341;51.290;-2.474;2023-03-30T04:07:36;27.27;;;4.13;;
60492;SDS011;46341;51.290;-2.474;2023-03-30T04:10:03;23.75;;;3.33;;
60492;SDS011;46341;51.290;-2.474;2023-03-30T04:12:30;20.43;;;3.53;;
60492;SDS011;46341;51.290;-2.474;2023-03-30T04:14:56;24.05;;;3.60;;
60492;SDS011;46341;51.290;-2.474;2023-03-30T04:17:23;24.40;;;3.75;;
60492;SDS011;46341;51.290;-2.474;2023-03-30T04:19:49;27.83;;;4.18;;
60492;SDS011;46341;51.290;-2.474;2023-03-30T04:22:19;22.23;;;4.07;;
60492;SDS011;46341;51.290;-2.474;2023-03-30T04:24:45;32.60;;;4.18;;
60492;SDS011;46341;51.290;-2.474;2023-03-30T04:27:12;18.55;;;3.78;;
60492;SDS011;46341;51.290;-2.474;2023-03-30T04:29:42;20.15;;;3.58;;
60492;SDS011;46341;51.290;-2.474;2023-03-30T04:32:10;22.55;;;3.95;;
60492;SDS011;46341;51.290;-2.474;2023-03-30T04:34:38;21.55;;;3.53;;
60492;SDS011;46341;51.290;-2.474;2023-03-30T04:37:14;26.58;;;3.90;;
60492;SDS011;46341;51.290;-2.474;2023-03-30T04:39:43;18.40;;;3.50;;
60492;SDS011;46341;51.290;-2.474;2023-03-30T04:42:09;21.02;;;3.80;;
60492;SDS011;46341;51.290;-2.474;2023-03-30T04:44:39;24.88;;;4.05;;
60492;SDS011;46341;51.290;-2.474;2023-03-30T04:47:05;22.90;;;3.72;;
60492;SDS011;46341;51.290;-2.474;2023-03-30T04:49:32;19.15;;;4.45;;
60492;SDS011;46341;51.290;-2.474;2023-03-30T04:51:58;24.25;;;4.60;;
60492;SDS011;46341;51.290;-2.474;2023-03-30T04:54:25;20.08;;;4.20;;
60492;SDS011;46341;51.290;-2.474;2023-03-30T04:56:51;25.05;;;3.78;;
60492;SDS011;46341;51.290;-2.474;2023-03-30T04:59:18;24.83;;;4.15;;
60492;SDS011;46341;51.290;-2.474;2023-03-30T05:01:45;26.80;;;4.73;;
60492;SDS011;46341;51.290;-2.474;2023-03-30T05:04:11;25.65;;;3.95;;
60492;SDS011;46341;51.290;-2.474;2023-03-30T05:06:38;27.73;;;4.10;;
60492;SDS011;46341;51.290;-2.474;2023-03-30T05:09:04;23.17;;;4.15;;
60492;SDS011;46341;51.290;-2.474;2023-03-30T05:11:31;29.73;;;4.60;;
60492;SDS011;46341;51.290;-2.474;2023-03-30T05:13:57;27.88;;;4.65;;
60492;SDS011;46341;51.290;-2.474;2023-03-30T05:16:23;24.77;;;3.97;;
60492;SDS011;46341;51.290;-2.474;2023-03-30T05:18:50;26.65;;;4.03;;
60492;SDS011;46341;51.290;-2.474;2023-03-30T05:21:17;24.93;;;4.87;;
60492;SDS011;46341;51.290;-2.474;2023-03-30T05:23:43;30.58;;;5.28;;
60492;SDS011;46341;51.290;-2.474;2023-03-30T05:26:09;32.28;;;4.28;;
60492;SDS011;46341;51.290;-2.474;2023-03-30T05:28:36;29.23;;;4.25;;
60492;SDS011;46341;51.290;-2.474;2023-03-30T05:31:02;26.60;;;4.38;;
60492;SDS011;46341;51.290;-2.474;2023-03-30T05:33:29;32.65;;;4.82;;
60492;SDS011;46341;51.290;-2.474;2023-03-30T05:35:56;31.77;;;4.65;;
60492;SDS011;46341;51.290;-2.474;2023-03-30T05:38:22;34.03;;;5.13;;
60492;SDS011;46341;51.290;-2.474;2023-03-30T05:40:52;35.88;;;5.30;;
60492;SDS011;46341;51.290;-2.474;2023-03-30T05:43:19;36.85;;;4.55;;
60492;SDS011;46341;51.290;-2.474;2023-03-30T05:45:45;37.13;;;5.25;;
60492;SDS011;46341;51.290;-2.474;2023-03-30T05:48:12;30.60;;;5.10;;
60492;SDS011;46341;51.290;-2.474;2023-03-30T05:50:39;37.10;;;5.22;;
60492;SDS011;46341;51.290;-2.474;2023-03-30T05:53:06;49.75;;;5.88;;
60492;SDS011;46341;51.290;-2.474;2023-03-30T05:55:33;54.45;;;5.60;;
60492;SDS011;46341;51.290;-2.474;2023-03-30T05:57:59;35.75;;;5.90;;
60492;SDS011;46341;51.290;-2.474;2023-03-30T06:00:26;39.72;;;5.10;;
60492;SDS011;46341;51.290;-2.474;2023-03-30T06:02:54;34.90;;;5.22;;
60492;SDS011;46341;51.290;-2.474;2023-03-30T06:05:20;33.42;;;5.55;;
60492;SDS011;46341;51.290;-2.474;2023-03-30T06:07:46;44.40;;;6.55;;
60492;SDS011;46341;51.290;-2.474;2023-03-30T06:10:13;42.65;;;5.85;;
60492;SDS011;46341;51.290;-2.474;2023-03-30T06:12:39;44.97;;;6.25;;
60492;SDS011;46341;51.290;-2.474;2023-03-30T06:15:06;43.78;;;5.93;;
60492;SDS011;46341;51.290;-2.474;2023-03-30T06:17:34;33.88;;;5.57;;
60492;SDS011;46341;51.290;-2.474;2023-03-30T06:20:02;45.42;;;6.43;;
60492;SDS011;46341;51.290;-2.474;2023-03-30T06:22:33;38.45;;;5.07;;
60492;SDS011;46341;51.290;-2.474;2023-03-30T06:25:00;42.05;;;5.63;;
60492;SDS011;46341;51.290;-2.474;2023-03-30T06:27:26;31.73;;;5.15;;
60492;SDS011;46341;51.290;-2.474;2023-03-30T06:29:53;33.88;;;5.78;;
60492;SDS011;46341;51.290;-2.474;2023-03-30T06:32:19;32.78;;;4.82;;
60492;SDS011;46341;51.290;-2.474;2023-03-30T06:34:45;33.63;;;5.47;;
60492;SDS011;46341;51.290;-2.474;2023-03-30T06:37:12;39.95;;;6.50;;
60492;SDS011;46341;51.290;-2.474;2023-03-30T06:39:38;28.02;;;4.70;;
60492;SDS011;46341;51.290;-2.474;2023-03-30T06:42:05;57.40;;;6.68;;
60492;SDS011;46341;51.290;-2.474;2023-03-30T06:44:31;35.22;;;4.93;;
60492;SDS011;46341;51.290;-2.474;2023-03-30T06:46:59;44.25;;;6.28;;
60492;SDS011;46341;51.290;-2.474;2023-03-30T06:49:26;49.17;;;5.57;;
60492;SDS011;46341;51.290;-2.474;2023-03-30T06:51:53;42.05;;;5.72;;
60492;SDS011;46341;51.290;-2.474;2023-03-30T06:54:19;38.97;;;5.57;;
60492;SDS011;46341;51.290;-2.474;2023-03-30T06:56:47;42.15;;;5.60;;
60492;SDS011;46341;51.290;-2.474;2023-03-30T06:59:13;39.42;;;5.80;;
60492;SDS011;46341;51.290;-2.474;2023-03-30T07:01:40;37.47;;;5.93;;
60492;SDS011;46341;51.290;-2.474;2023-03-30T07:04:08;36.70;;;5.07;;
60492;SDS011;46341;51.290;-2.474;2023-03-30T07:06:34;51.55;;;6.60;;
60492;SDS011;46341;51.290;-2.474;2023-03-30T07:09:01;43.42;;;6.18;;
60492;SDS011;46341;51.290;-2.474;2023-03-30T07:11:27;38.25;;;5.50;;
60492;SDS011;46341;51.290;-2.474;2023-03-30T07:13:54;35.75;;;5.65;;
60492;SDS011;46341;51.290;-2.474;2023-03-30T07:16:23;39.50;;;5.93;;
60492;SDS011;46341;51.290;-2.474;2023-03-30T07:18:50;37.47;;;5.40;;
60492;SDS011;46341;51.290;-2.474;2023-03-30T07:21:18;35.63;;;6.80;;
60492;SDS011;46341;51.290;-2.474;2023-03-30T07:23:44;31.48;;;4.90;;
60492;SDS011;46341;51.290;-2.474;2023-03-30T07:26:11;32.83;;;5.35;;
60492;SDS011;46341;51.290;-2.474;2023-03-30T07:28:37;37.95;;;5.50;;
60492;SDS011;46341;51.290;-2.474;2023-03-30T07:31:06;30.67;;;5.35;;
60492;SDS011;46341;51.290;-2.474;2023-03-30T07:33:33;42.53;;;6.03;;
60492;SDS011;46341;51.290;-2.474;2023-03-30T07:35:59;42.08;;;6.10;;
60492;SDS011;46341;51.290;-2.474;2023-03-30T07:38:26;36.80;;;4.63;;
60492;SDS011;46341;51.290;-2.474;2023-03-30T07:40:53;41.97;;;5.67;;
60492;SDS011;46341;51.290;-2.474;2023-03-30T07:43:19;43.60;;;6.53;;
60492;SDS011;46341;51.290;-2.474;2023-03-30T07:45:46;28.40;;;5.35;;
60492;SDS011;46341;51.290;-2.474;2023-03-30T07:48:13;35.08;;;5.13;;
60492;SDS011;46341;51.290;-2.474;2023-03-30T07:50:39;40.20;;;5.25;;
60492;SDS011;46341;51.290;-2.474;2023-03-30T07:53:06;34.67;;;5.50;;
60492;SDS011;46341;51.290;-2.474;2023-03-30T07:55:32;35.53;;;4.97;;
60492;SDS011;46341;51.290;-2.474;2023-03-30T07:57:59;34.72;;;5.10;;
60492;SDS011;46341;51.290;-2.474;2023-03-30T08:00:25;30.98;;;4.50;;
60492;SDS011;46341;51.290;-2.474;2023-03-30T08:02:51;30.35;;;5.60;;
60492;SDS011;46341;51.290;-2.474;2023-03-30T08:05:18;32.45;;;5.32;;
60492;SDS011;46341;51.290;-2.474;2023-03-30T08:07:45;28.90;;;5.20;;
60492;SDS011;46341;51.290;-2.474;2023-03-30T08:10:11;29.95;;;5.00;;
60492;SDS011;46341;51.290;-2.474;2023-03-30T08:12:38;28.25;;;5.05;;
60492;SDS011;46341;51.290;-2.474;2023-03-30T08:15:04;27.38;;;4.18;;
60492;SDS011;46341;51.290;-2.474;2023-03-30T08:17:31;29.00;;;4.85;;
60492;SDS011;46341;51.290;-2.474;2023-03-30T08:19:57;29.52;;;4.75;;
60492;SDS011;46341;51.290;-2.474;2023-03-30T08:22:24;26.75;;;4.35;;
60492;SDS011;46341;51.290;-2.474;2023-03-30T08:24:50;27.33;;;4.43;;
60492;SDS011;46341;51.290;-2.474;2023-03-30T08:27:17;27.92;;;4.00;;
60492;SDS011;46341;51.290;-2.474;2023-03-30T08:29:43;22.52;;;3.67;;
60492;SDS011;46341;51.290;-2.474;2023-03-30T08:32:09;25.55;;;4.60;;
60492;SDS011;46341;51.290;-2.474;2023-03-30T08:34:36;18.30;;;3.42;;
60492;SDS011;46341;51.290;-2.474;2023-03-30T08:37:02;21.52;;;4.28;;
60492;SDS011;46341;51.290;-2.474;2023-03-30T08:39:29;17.83;;;3.58;;
60492;SDS011;46341;51.290;-2.474;2023-03-30T08:46:56;19.42;;;3.80;;
60492;SDS011;46341;51.290;-2.474;2023-03-30T08:49:23;20.45;;;3.22;;
60492;SDS011;46341;51.290;-2.474;2023-03-30T08:51:51;16.33;;;2.85;;
60492;SDS011;46341;51.290;-2.474;2023-03-30T08:54:19;11.77;;;2.67;;
60492;SDS011;46341;51.290;-2.474;2023-03-30T08:57:08;15.77;;;2.88;;
60492;SDS011;46341;51.290;-2.474;2023-03-30T08:59:57;12.07;;;3.33;;
60492;SDS011;46341;51.290;-2.474;2023-03-30T09:02:29;18.10;;;3.17;;
60492;SDS011;46341;51.290;-2.474;2023-03-30T09:04:58;14.35;;;3.78;;
60492;SDS011;46341;51.290;-2.474;2023-03-30T09:07:27;14.52;;;2.90;;
60492;SDS011;46341;51.290;-2.474;2023-03-30T09:09:55;14.93;;;3.13;;
60492;SDS011;46341;51.290;-2.474;2023-03-30T09:15:18;20.65;;;3.45;;
60492;SDS011;46341;51.290;-2.474;2023-03-30T09:17:49;16.20;;;3.17;;
60492;SDS011;46341;51.290;-2.474;2023-03-30T09:20:19;15.32;;;2.95;;
60492;SDS011;46341;51.290;-2.474;2023-03-30T09:22:47;15.32;;;2.60;;
60492;SDS011;46341;51.290;-2.474;2023-03-30T09:25:18;13.38;;;2.53;;
60492;SDS011;46341;51.290;-2.474;2023-03-30T09:28:05;15.85;;;3.33;;
60492;SDS011;46341;51.290;-2.474;2023-03-30T09:31:08;19.63;;;5.25;;
60492;SDS011;46341;51.290;-2.474;2023-03-30T09:38:30;23.13;;;8.35;;
60492;SDS011;46341;51.290;-2.474;2023-03-30T09:43:42;24.23;;;9.00;;
60492;SDS011;46341;51.290;-2.474;2023-03-30T09:46:12;21.98;;;7.95;;
60492;SDS011;46341;51.290;-2.474;2023-03-30T09:53:44;23.25;;;3.75;;
60492;SDS011;46341;51.290;-2.474;2023-03-30T09:56:28;23.10;;;4.18;;
60492;SDS011;46341;51.290;-2.474;2023-03-30T09:58:54;18.85;;;4.15;;
60492;SDS011;46341;51.290;-2.474;2023-03-30T10:01:21;26.70;;;5.20;;
60492;SDS011;46341;51.290;-2.474;2023-03-30T10:04:05;24.83;;;4.45;;
60492;SDS011;46341;51.290;-2.474;2023-03-30T10:06:37;21.40;;;5.22;;
60492;SDS011;46341;51.290;-2.474;2023-03-30T10:09:05;20.38;;;4.75;;
60492;SDS011;46341;51.290;-2.474;2023-03-30T10:11:47;18.70;;;3.03;;
60492;SDS011;46341;51.290;-2.474;2023-03-30T10:14:30;20.02;;;4.15;;
60492;SDS011;46341;51.290;-2.474;2023-03-30T10:16:57;14.88;;;3.58;;
60492;SDS011;46341;51.290;-2.474;2023-03-30T10:19:24;15.93;;;3.60;;
60492;SDS011;46341;51.290;-2.474;2023-03-30T10:21:55;12.73;;;3.03;;
60492;SDS011;46341;51.290;-2.474;2023-03-30T10:24:24;17.08;;;3.85;;
60492;SDS011;46341;51.290;-2.474;2023-03-30T10:26:52;15.18;;;3.17;;
60492;SDS011;46341;51.290;-2.474;2023-03-30T10:29:21;16.13;;;3.92;;
60492;SDS011;46341;51.290;-2.474;2023-03-30T10:31:48;13.60;;;2.95;;
60492;SDS011;46341;51.290;-2.474;2023-03-30T10:34:17;19.25;;;4.10;;
60492;SDS011;46341;51.290;-2.474;2023-03-30T10:36:46;16.48;;;4.63;;
60492;SDS011;46341;51.290;-2.474;2023-03-30T10:39:20;21.10;;;5.97;;
60492;SDS011;46341;51.290;-2.474;2023-03-30T10:41:47;17.30;;;3.40;;
60492;SDS011;46341;51.290;-2.474;2023-03-30T10:46:44;17.50;;;4.55;;
60492;SDS011;46341;51.290;-2.474;2023-03-30T10:49:12;17.60;;;3.40;;
60492;SDS011;46341;51.290;-2.474;2023-03-30T10:51:55;15.15;;;3.22;;
60492;SDS011;46341;51.290;-2.474;2023-03-30T10:57:00;15.25;;;3.65;;
60492;SDS011;46341;51.290;-2.474;2023-03-30T11:04:49;13.90;;;3.20;;
60492;SDS011;46341;51.290;-2.474;2023-03-30T11:10:21;17.05;;;3.70;;
60492;SDS011;46341;51.290;-2.474;2023-03-30T11:12:55;15.15;;;4.68;;
60492;SDS011;46341;51.290;-2.474;2023-03-30T11:15:25;18.33;;;4.22;;
60492;SDS011;46341;51.290;-2.474;2023-03-30T11:17:54;17.98;;;3.83;;
60492;SDS011;46341;51.290;-2.474;2023-03-30T11:20:24;14.32;;;2.97;;
60492;SDS011;46341;51.290;-2.474;2023-03-30T11:23:00;15.25;;;2.92;;
60492;SDS011;46341;51.290;-2.474;2023-03-30T11:25:32;12.77;;;3.08;;
60492;SDS011;46341;51.290;-2.474;2023-03-30T11:28:10;14.48;;;2.92;;
60492;SDS011;46341;51.290;-2.474;2023-03-30T11:30:37;13.32;;;3.13;;
60492;SDS011;46341;51.290;-2.474;2023-03-30T11:35:47;10.02;;;2.83;;
60492;SDS011;46341;51.290;-2.474;2023-03-30T11:38:15;13.02;;;3.00;;
60492;SDS011;46341;51.290;-2.474;2023-03-30T11:40:46;8.93;;;2.80;;
60492;SDS011;46341;51.290;-2.474;2023-03-30T11:43:14;10.27;;;3.03;;
60492;SDS011;46341;51.290;-2.474;2023-03-30T11:45:43;13.00;;;2.85;;
60492;SDS011;46341;51.290;-2.474;2023-03-30T11:53:31;27.33;;;3.83;;
60492;SDS011;46341;51.290;-2.474;2023-03-30T11:56:04;12.45;;;2.90;;
60492;SDS011;46341;51.290;-2.474;2023-03-30T12:01:02;12.73;;;3.17;;
60492;SDS011;46341;51.290;-2.474;2023-03-30T12:08:52;10.10;;;2.72;;
60492;SDS011;46341;51.290;-2.474;2023-03-30T12:13:48;10.43;;;2.30;;
60492;SDS011;46341;51.290;-2.474;2023-03-30T12:16:25;12.00;;;2.58;;
60492;SDS011;46341;51.290;-2.474;2023-03-30T12:18:56;10.73;;;2.40;;
60492;SDS011;46341;51.290;-2.474;2023-03-30T12:21:32;7.55;;;1.77;;
60492;SDS011;46341;51.290;-2.474;2023-03-30T12:24:11;6.40;;;1.85;;
60492;SDS011;46341;51.290;-2.474;2023-03-30T12:26:39;9.18;;;2.10;;
60492;SDS011;46341;51.290;-2.474;2023-03-30T12:29:14;7.90;;;1.90;;
60492;SDS011;46341;51.290;-2.474;2023-03-30T12:34:36;5.93;;;1.88;;
60492;SDS011;46341;51.290;-2.474;2023-03-30T12:37:05;5.25;;;1.50;;
60492;SDS011;46341;51.290;-2.474;2023-03-30T12:42:07;8.73;;;1.70;;
60492;SDS011;46341;51.290;-2.474;2023-03-30T12:52:29;3.92;;;1.25;;
60492;SDS011;46341;51.290;-2.474;2023-03-30T12:55:02;5.30;;;1.40;;
60492;SDS011;46341;51.290;-2.474;2023-03-30T13:00:22;4.28;;;1.30;;
60492;SDS011;46341;51.290;-2.474;2023-03-30T13:05:34;3.30;;;1.00;;
60492;SDS011;46341;51.290;-2.474;2023-03-30T13:08:02;2.97;;;0.80;;
60492;SDS011;46341;51.290;-2.474;2023-03-30T13:12:57;3.75;;;1.05;;
60492;SDS011;46341;51.290;-2.474;2023-03-30T13:20:33;3.50;;;1.35;;
60492;SDS011;46341;51.290;-2.474;2023-03-30T13:25:44;4.55;;;1.13;;
60492;SDS011;46341;51.290;-2.474;2023-03-30T13:30:57;4.82;;;1.30;;
60492;SDS011;46341;51.290;-2.474;2023-03-30T13:33:27;5.47;;;1.35;;
60492;SDS011;46341;51.290;-2.474;2023-03-30T13:38:44;5.68;;;1.67;;
60492;SDS011;46341;51.290;-2.474;2023-03-30T13:41:28;8.63;;;1.48;;
60492;SDS011;46341;51.290;-2.474;2023-03-30T13:44:00;6.07;;;1.63;;
60492;SDS011;46341;51.290;-2.474;2023-03-30T13:47:14;10.60;;;1.80;;
60492;SDS011;46341;51.290;-2.474;2023-03-30T13:52:05;10.23;;;1.73;;
60492;SDS011;46341;51.290;-2.474;2023-03-30T13:54:34;10.50;;;2.20;;
60492;SDS011;46341;51.290;-2.474;2023-03-30T13:57:07;12.93;;;2.03;;
60492;SDS011;46341;51.290;-2.474;2023-03-30T13:59:35;18.95;;;2.28;;
60492;SDS011;46341;51.290;-2.474;2023-03-30T14:02:03;12.73;;;2.78;;
60492;SDS011;46341;51.290;-2.474;2023-03-30T14:04:33;8.63;;;1.27;;
60492;SDS011;46341;51.290;-2.474;2023-03-30T14:09:39;4.90;;;0.80;;
60492;SDS011;46341;51.290;-2.474;2023-03-30T14:12:05;4.70;;;0.95;;
60492;SDS011;46341;51.290;-2.474;2023-03-30T14:17:00;7.90;;;1.30;;
60492;SDS011;46341;51.290;-2.474;2023-03-30T14:19:27;24.40;;;2.47;;
60492;SDS011;46341;51.290;-2.474;2023-03-30T14:21:55;33.92;;;2.95;;
60492;SDS011;46341;51.290;-2.474;2023-03-30T14:24:27;20.85;;;2.50;;
60492;SDS011;46341;51.290;-2.474;2023-03-30T14:26:59;9.98;;;2.00;;
60492;SDS011;46341;51.290;-2.474;2023-03-30T14:29:26;15.40;;;2.45;;
60492;SDS011;46341;51.290;-2.474;2023-03-30T14:32:00;14.55;;;2.63;;
60492;SDS011;46341;51.290;-2.474;2023-03-30T14:34:31;8.27;;;1.45;;
60492;SDS011;46341;51.290;-2.474;2023-03-30T14:36:59;10.55;;;1.98;;
60492;SDS011;46341;51.290;-2.474;2023-03-30T14:39:26;9.85;;;1.88;;
60492;SDS011;46341;51.290;-2.474;2023-03-30T14:41:54;8.63;;;1.77;;
60492;SDS011;46341;51.290;-2.474;2023-03-30T14:44:21;6.55;;;1.58;;
60492;SDS011;46341;51.290;-2.474;2023-03-30T14:46:49;10.02;;;2.00;;
60492;SDS011;46341;51.290;-2.474;2023-03-30T14:49:23;8.95;;;2.28;;
60492;SDS011;46341;51.290;-2.474;2023-03-30T14:51:53;11.10;;;3.03;;
60492;SDS011;46341;51.290;-2.474;2023-03-30T14:54:24;10.45;;;2.33;;
60492;SDS011;46341;51.290;-2.474;2023-03-30T14:56:55;14.87;;;2.73;;
60492;SDS011;46341;51.290;-2.474;2023-03-30T14:59:23;21.67;;;2.85;;
60492;SDS011;46341;51.290;-2.474;2023-03-30T15:01:50;16.38;;;2.92;;
60492;SDS011;46341;51.290;-2.474;2023-03-30T15:04:17;18.00;;;2.97;;
60492;SDS011;46341;51.290;-2.474;2023-03-30T15:06:45;22.98;;;3.38;;
60492;SDS011;46341;51.290;-2.474;2023-03-30T15:09:16;20.38;;;3.20;;
60492;SDS011;46341;51.290;-2.474;2023-03-30T15:11:43;21.95;;;3.70;;
60492;SDS011;46341;51.290;-2.474;2023-03-30T15:14:14;23.85;;;4.65;;
60492;SDS011;46341;51.290;-2.474;2023-03-30T15:16:42;23.08;;;3.97;;
60492;SDS011;46341;51.290;-2.474;2023-03-30T15:19:11;30.85;;;4.65;;
60492;SDS011;46341;51.290;-2.474;2023-03-30T15:21:38;28.67;;;4.32;;
60492;SDS011;46341;51.290;-2.474;2023-03-30T15:24:09;23.05;;;4.50;;
60492;SDS011;46341;51.290;-2.474;2023-03-30T15:26:40;24.73;;;4.60;;
60492;SDS011;46341;51.290;-2.474;2023-03-30T15:29:08;24.08;;;4.82;;
60492;SDS011;46341;51.290;-2.474;2023-03-30T15:31:35;23.98;;;4.05;;
60492;SDS011;46341;51.290;-2.474;2023-03-30T15:34:01;26.30;;;5.25;;
60492;SDS011;46341;51.290;-2.474;2023-03-30T15:36:35;29.23;;;4.90;;
60492;SDS011;46341;51.290;-2.474;2023-03-30T15:39:02;27.50;;;5.00;;
60492;SDS011;46341;51.290;-2.474;2023-03-30T15:42:11;23.30;;;4.20;;
60492;SDS011;46341;51.290;-2.474;2023-03-30T15:44:19;18.20;;;3.85;;
60492;SDS011;46341;51.290;-2.474;2023-03-30T15:46:49;24.58;;;4.30;;
60492;SDS011;46341;51.290;-2.474;2023-03-30T15:49:17;18.48;;;4.25;;
60492;SDS011;46341;51.290;-2.474;2023-03-30T15:51:49;17.67;;;3.42;;
60492;SDS011;46341;51.290;-2.474;2023-03-30T15:54:19;19.15;;;3.63;;
60492;SDS011;46341;51.290;-2.474;2023-03-30T15:59:17;18.80;;;3.50;;
60492;SDS011;46341;51.290;-2.474;2023-03-30T16:04:12;16.63;;;3.35;;
60492;SDS011;46341;51.290;-2.474;2023-03-30T16:06:38;18.92;;;3.25;;
60492;SDS011;46341;51.290;-2.474;2023-03-30T16:09:08;16.60;;;3.20;;
60492;SDS011;46341;51.290;-2.474;2023-03-30T16:11:34;20.67;;;4.55;;
60492;SDS011;46341;51.290;-2.474;2023-03-30T16:14:02;22.58;;;4.55;;
60492;SDS011;46341;51.290;-2.474;2023-03-30T16:16:28;25.00;;;4.43;;
60492;SDS011;46341;51.290;-2.474;2023-03-30T16:18:54;22.05;;;4.40;;
60492;SDS011;46341;51.290;-2.474;2023-03-30T16:21:21;27.92;;;5.80;;
60492;SDS011;46341;51.290;-2.474;2023-03-30T16:23:49;25.30;;;4.97;;
60492;SDS011;46341;51.290;-2.474;2023-03-30T16:26:17;26.17;;;5.15;;
60492;SDS011;46341;51.290;-2.474;2023-03-30T16:28:44;28.03;;;5.87;;
60492;SDS011;46341;51.290;-2.474;2023-03-30T16:31:13;27.02;;;6.20;;
60492;SDS011;46341;51.290;-2.474;2023-03-30T16:33:41;28.38;;;4.68;;
60492;SDS011;46341;51.290;-2.474;2023-03-30T16:36:10;23.10;;;4.28;;
60492;SDS011;46341;51.290;-2.474;2023-03-30T16:38:38;18.67;;;3.90;;
60492;SDS011;46341;51.290;-2.474;2023-03-30T16:41:04;19.52;;;4.15;;
60492;SDS011;46341;51.290;-2.474;2023-03-30T16:43:32;20.92;;;3.88;;
60492;SDS011;46341;51.290;-2.474;2023-03-30T16:45:58;22.98;;;4.35;;
60492;SDS011;46341;51.290;-2.474;2023-03-30T16:48:24;20.63;;;4.32;;
60492;SDS011;46341;51.290;-2.474;2023-03-30T16:50:52;24.38;;;4.10;;
60492;SDS011;46341;51.290;-2.474;2023-03-30T16:53:19;18.73;;;3.97;;